Time,TemperatureF,DewpointF,PressureIn,WindDirection,WindDirectionDegrees,WindSpeedMPH,WindSpeedGustMPH,Humidity,HourlyPrecipIn,Conditions,Clouds,dailyrainin,SolarRadiationWatts/m^2,SoftwareType,DateUTC
2013-07-29 00:01:00,77.0,49.0,29.89,NW,314,3.0,4.0,37,0.00,,,0.01,0.000000,,2013-07-29 07:01:00,
2013-07-29 00:11:00,77.0,49.0,29.90,NW,314,2.0,3.0,38,0.00,,,0.01,0.000000,,2013-07-29 07:11:00,
2013-07-29 00:22:00,77.0,49.0,29.90,NW,311,4.0,6.0,38,0.00,,,0.01,0.000000,,2013-07-29 07:22:00,
2013-07-29 00:33:00,77.0,49.0,29.90,NW,315,4.0,7.0,37,0.00,,,0.01,0.000000,,2013-07-29 07:33:00,
2013-07-29 00:43:00,77.0,47.0,29.90,NW,311,5.0,7.0,35,0.00,,,0.01,0.000000,,2013-07-29 07:43:00,
2013-07-29 00:53:00,77.0,46.0,29.90,WNW,302,4.0,9.0,34,0.00,,,0.01,0.000000,,2013-07-29 07:53:00,
2013-07-29 01:02:00,77.0,45.0,29.90,WNW,303,3.0,6.0,32,0.00,,,0.01,0.000000,,2013-07-29 08:02:00,
2013-07-29 01:12:00,77.0,44.0,29.91,NNW,338,5.0,10.0,31,0.00,,,0.01,0.000000,,2013-07-29 08:12:00,
2013-07-29 01:42:00,77.0,42.0,29.91,North,358,5.0,9.0,29,0.00,,,0.01,0.000000,,2013-07-29 08:42:00,
2013-07-29 01:52:00,77.0,42.0,29.91,North,360,8.0,10.0,29,0.00,,,0.01,0.000000,,2013-07-29 08:52:00,
2013-07-29 02:02:00,76.0,41.0,29.91,North,351,7.0,10.0,28,0.00,,,0.01,0.000000,,2013-07-29 09:02:00,
2013-07-29 02:12:00,75.0,39.0,29.91,NNW,337,3.0,6.0,27,0.00,,,0.01,0.000000,,2013-07-29 09:12:00,
2013-07-29 02:22:00,74.0,38.0,29.92,NNW,339,4.0,7.0,27,0.00,,,0.01,0.000000,,2013-07-29 09:22:00,
2013-07-29 02:33:00,74.0,37.0,29.92,NNW,340,4.0,6.0,26,0.00,,,0.01,0.000000,,2013-07-29 09:33:00,
2013-07-29 02:43:00,74.0,36.0,29.92,North,356,4.0,6.0,25,0.00,,,0.01,0.000000,,2013-07-29 09:43:00,
2013-07-29 02:53:00,74.0,36.0,29.92,North,358,5.0,7.0,25,0.00,,,0.01,0.000000,,2013-07-29 09:53:00,
2013-07-29 03:02:00,73.0,35.0,29.92,NNW,334,3.0,6.0,25,0.00,,,0.01,0.000000,,2013-07-29 10:02:00,
2013-07-29 03:12:00,73.0,35.0,29.92,NNW,334,1.0,3.0,25,0.00,,,0.01,0.000000,,2013-07-29 10:12:00,
2013-07-29 03:32:00,72.0,35.0,29.92,NNW,335,2.0,3.0,26,0.00,,,0.01,0.000000,,2013-07-29 10:32:00,
2013-07-29 03:52:00,71.0,36.0,29.91,NNW,334,2.0,3.0,28,0.00,,,0.01,0.000000,,2013-07-29 10:52:00,
2013-07-29 04:02:00,70.0,37.0,29.91,NNW,334,2.0,3.0,30,0.00,,,0.01,0.000000,,2013-07-29 11:02:00,
2013-07-29 04:33:00,68.0,37.0,29.92,SW,216,3.0,6.0,32,0.00,,,0.01,0.000000,,2013-07-29 11:33:00,
2013-07-29 04:43:00,68.0,39.0,29.93,SW,216,3.0,4.0,34,0.00,,,0.01,0.000000,,2013-07-29 11:43:00,
2013-07-29 04:53:00,68.0,39.0,29.93,SW,216,2.0,3.0,34,0.00,,,0.01,0.000000,,2013-07-29 11:53:00,
2013-07-29 05:02:00,67.0,39.0,29.93,SW,216,3.0,3.0,36,0.00,,,0.01,0.000000,,2013-07-29 12:02:00,
2013-07-29 05:12:00,67.0,41.0,29.93,SW,216,4.0,4.0,38,0.00,,,0.01,0.000000,,2013-07-29 12:12:00,
2013-07-29 05:22:00,67.0,41.0,29.94,SSW,200,5.0,6.0,39,0.00,,,0.01,0.000000,,2013-07-29 12:22:00,
2013-07-29 05:33:00,67.0,43.0,29.94,SSW,193,5.0,6.0,42,0.00,,,0.01,0.000000,,2013-07-29 12:33:00,
2013-07-29 05:53:00,66.0,43.0,29.93,SSW,194,5.0,6.0,44,0.00,,,0.01,0.000000,,2013-07-29 12:53:00,
2013-07-29 06:11:00,66.0,45.0,29.94,South,186,5.0,5.0,46,0.00,,,0.01,0.000000,,2013-07-29 13:11:00,
2013-07-29 06:33:00,66.0,45.0,29.94,South,183,4.0,6.0,46,0.00,,,0.01,19.000000,,2013-07-29 13:33:00,
2013-07-29 06:53:00,66.0,45.0,29.96,South,188,4.0,5.0,46,0.00,,,0.01,67.000000,,2013-07-29 13:53:00,
2013-07-29 07:02:00,67.0,45.0,29.96,South,188,3.0,5.0,45,0.00,,,0.01,100.000000,,2013-07-29 14:02:00,
2013-07-29 07:11:00,68.0,45.0,29.97,South,190,2.0,4.0,43,0.00,,,0.01,130.000000,,2013-07-29 14:11:00,
2013-07-29 07:22:00,70.0,46.0,29.97,South,175,2.0,4.0,42,0.00,,,0.01,160.000000,,2013-07-29 14:22:00,
2013-07-29 07:33:00,71.0,46.0,29.97,South,174,1.0,3.0,41,0.00,,,0.01,193.000000,,2013-07-29 14:33:00,
2013-07-29 07:42:00,72.0,46.0,29.97,SW,216,0.0,2.0,39,0.00,,,0.01,225.000000,,2013-07-29 14:42:00,
2013-07-29 07:53:00,74.0,46.0,29.97,SW,214,0.0,0.0,37,0.00,,,0.01,262.000000,,2013-07-29 14:53:00,
2013-07-29 08:02:00,76.0,46.0,29.97,WSW,239,1.0,2.0,34,0.00,,,0.01,294.000000,,2013-07-29 15:02:00,
2013-07-29 08:12:00,78.0,42.0,29.98,WSW,239,2.0,3.0,28,0.00,,,0.01,332.000000,,2013-07-29 15:12:00,
2013-07-29 08:22:00,79.0,41.0,29.97,WSW,241,2.0,3.0,26,0.00,,,0.01,371.000000,,2013-07-29 15:22:00,
2013-07-29 08:33:00,80.0,42.0,29.97,NNW,342,2.0,5.0,26,0.00,,,0.01,399.000000,,2013-07-29 15:33:00,
2013-07-29 08:43:00,81.0,42.0,29.98,NNW,336,3.0,4.0,25,0.00,,,0.01,438.000000,,2013-07-29 15:43:00,
2013-07-29 09:12:00,82.0,42.0,29.98,North,360,4.0,5.0,24,0.00,,,0.01,540.000000,,2013-07-29 16:12:00,
2013-07-29 09:22:00,83.0,42.0,29.97,NNW,327,4.0,5.0,24,0.00,,,0.01,571.000000,,2013-07-29 16:22:00,
2013-07-29 09:33:00,84.0,43.0,29.97,NNW,329,0.0,5.0,24,0.00,,,0.01,610.000000,,2013-07-29 16:33:00,
2013-07-29 09:44:00,85.0,43.0,29.98,North,11,1.0,4.0,23,0.00,,,0.01,638.000000,,2013-07-29 16:44:00,
2013-07-29 09:53:00,86.0,44.0,29.98,ENE,63,1.0,5.0,23,0.00,,,0.01,673.000000,,2013-07-29 16:53:00,
2013-07-29 10:34:00,88.0,44.0,30.01,NE,39,5.0,6.0,22,0.00,,,0.01,789.000000,,2013-07-29 17:34:00,
2013-07-29 10:53:00,89.0,45.0,29.99,East,81,3.0,6.0,22,0.00,,,0.00,837.000000,,2013-07-29 17:53:00,
2013-07-29 11:43:00,93.0,45.0,29.98,WSW,238,3.0,7.0,19,0.00,,,0.00,937.000000,,2013-07-29 18:43:00,
2013-07-29 11:52:00,93.0,43.0,30.00,SE,143,3.0,6.0,18,0.00,,,0.00,953.000000,,2013-07-29 18:52:00,
2013-07-29 12:02:00,95.0,45.0,30.00,SSW,195,2.0,7.0,18,0.00,,,0.00,970.000000,,2013-07-29 19:02:00,
2013-07-29 12:12:00,95.0,43.0,30.00,SSW,193,2.0,8.0,17,0.00,,,0.00,983.000000,,2013-07-29 19:12:00,
2013-07-29 12:44:00,96.0,43.0,29.99,SE,138,6.0,11.0,16,0.00,,,0.00,1002.000000,,2013-07-29 19:44:00,
2013-07-29 12:53:00,96.0,43.0,29.98,East,92,4.0,10.0,16,0.00,,,0.00,1009.000000,,2013-07-29 19:53:00,
2013-07-29 13:02:00,96.0,44.0,29.98,ESE,107,6.0,12.0,17,0.00,,,0.00,1013.000000,,2013-07-29 20:02:00,
2013-07-29 13:11:00,96.0,41.0,29.98,ENE,72,6.0,13.0,15,0.00,,,0.00,1013.000000,,2013-07-29 20:11:00,
2013-07-29 13:22:00,97.0,40.0,29.98,SSE,150,11.0,14.0,14,0.00,,,0.00,1018.000000,,2013-07-29 20:22:00,
2013-07-29 13:33:00,99.0,35.0,29.98,South,172,14.0,16.0,11,0.00,,,0.00,1032.000000,,2013-07-29 20:33:00,
2013-07-29 14:52:00,101.0,34.0,29.96,SE,146,8.0,21.0,10,0.00,,,0.00,940.000000,,2013-07-29 21:52:00,
2013-07-29 15:02:00,101.0,34.0,29.96,SW,226,3.0,23.0,10,0.00,,,0.00,925.000000,,2013-07-29 22:02:00,
2013-07-29 15:11:00,102.0,30.0,29.96,NE,54,12.0,22.0,8,0.00,,,0.00,907.000000,,2013-07-29 22:11:00,
2013-07-29 15:22:00,102.0,26.0,29.96,SE,138,12.0,28.0,7,0.00,,,0.00,886.000000,,2013-07-29 22:22:00,
2013-07-29 15:33:00,103.0,27.0,29.96,SSE,165,15.0,24.0,7,0.00,,,0.00,863.000000,,2013-07-29 22:33:00,
2013-07-29 15:43:00,103.0,27.0,29.93,SSE,158,16.0,27.0,7,0.00,,,0.00,844.000000,,2013-07-29 22:43:00,
2013-07-29 15:53:00,103.0,27.0,29.93,SE,138,12.0,26.0,7,0.00,,,0.00,819.000000,,2013-07-29 22:53:00,
2013-07-29 16:43:00,102.0,23.0,29.93,SSE,159,21.0,33.0,6,0.00,,,0.00,671.000000,,2013-07-29 23:43:00,
2013-07-29 16:53:00,102.0,23.0,29.91,SE,144,19.0,30.0,6,0.00,,,0.00,642.000000,,2013-07-29 23:53:00,
2013-07-29 17:43:00,101.0,26.0,29.91,South,177,18.0,31.0,7,0.00,,,0.00,473.000000,,2013-07-30 00:43:00,
2013-07-29 17:52:00,100.0,21.0,29.92,South,174,22.0,31.0,6,0.00,,,0.00,441.000000,,2013-07-30 00:52:00,
2013-07-29 18:02:00,100.0,21.0,29.92,South,170,20.0,29.0,6,0.00,,,0.00,404.000000,,2013-07-30 01:02:00,
2013-07-29 18:12:00,99.0,24.0,29.91,South,190,23.0,33.0,7,0.00,,,0.00,371.000000,,2013-07-30 01:12:00,
2013-07-29 18:22:00,99.0,27.0,29.92,South,171,25.0,34.0,8,0.00,,,0.00,329.000000,,2013-07-30 01:22:00,
2013-07-29 18:32:00,98.0,23.0,29.92,SSE,156,23.0,31.0,7,0.00,,,0.00,295.000000,,2013-07-30 01:32:00,
2013-07-29 18:43:00,98.0,27.0,29.92,South,171,24.0,32.0,8,0.00,,,0.00,258.000000,,2013-07-30 01:43:00,
2013-07-29 18:52:00,97.0,26.0,29.92,South,175,26.0,35.0,8,0.00,,,0.00,223.000000,,2013-07-30 01:52:00,
2013-07-29 19:02:00,96.0,25.0,29.92,South,177,26.0,30.0,8,0.00,,,0.00,188.000000,,2013-07-30 02:02:00,
2013-07-29 19:22:00,96.0,31.0,29.93,South,187,20.0,28.0,10,0.00,,,0.00,127.000000,,2013-07-30 02:22:00,
2013-07-29 20:02:00,92.0,30.0,29.95,South,171,12.0,20.0,11,0.00,,,0.00,12.000000,,2013-07-30 03:02:00,
2013-07-29 20:22:00,91.0,31.0,29.94,South,177,12.0,18.0,12,0.00,,,0.00,0.000000,,2013-07-30 03:22:00,
2013-07-29 20:33:00,91.0,37.0,29.94,SSW,210,10.0,21.0,15,0.00,,,0.00,0.000000,,2013-07-30 03:33:00,
2013-07-29 20:43:00,90.0,34.0,29.97,SW,216,10.0,15.0,14,0.00,,,0.00,0.000000,,2013-07-30 03:43:00,
2013-07-29 21:02:00,89.0,37.0,29.97,South,190,8.0,12.0,16,0.00,,,0.00,0.000000,,2013-07-30 04:02:00,
2013-07-29 21:12:00,89.0,38.0,29.98,SSW,193,6.0,11.0,17,0.00,,,0.00,0.000000,,2013-07-30 04:12:00,
2013-07-29 21:32:00,87.0,38.0,29.97,SSW,196,4.0,7.0,18,0.00,,,0.00,0.000000,,2013-07-30 04:32:00,
2013-07-29 21:43:00,87.0,40.0,29.99,SSW,192,2.0,6.0,19,0.00,,,0.00,0.000000,,2013-07-30 04:43:00,
2013-07-29 21:52:00,86.0,39.0,30.01,SSW,199,5.0,9.0,19,0.00,,,0.00,0.000000,,2013-07-30 04:52:00,
2013-07-29 22:02:00,85.0,38.0,30.01,South,187,7.0,10.0,19,0.00,,,0.00,0.000000,,2013-07-30 05:02:00,
2013-07-29 22:11:00,85.0,38.0,30.01,South,191,5.0,10.0,19,0.00,,,0.00,0.000000,,2013-07-30 05:11:00,
2013-07-29 22:22:00,85.0,38.0,30.01,South,184,9.0,14.0,19,0.00,,,0.00,0.000000,,2013-07-30 05:22:00,
2013-07-29 22:45:00,85.0,38.0,30.00,SSW,205,12.0,19.0,19,0.00,,,0.00,0.000000,,2013-07-30 05:45:00,
2013-07-29 22:52:00,84.0,37.0,30.00,South,186,10.0,20.0,19,0.00,,,0.00,0.000000,,2013-07-30 05:52:00,
2013-07-29 23:01:00,85.0,38.0,30.00,SSW,195,12.0,20.0,19,0.00,,,0.00,0.000000,,2013-07-30 06:01:00,
2013-07-29 23:11:00,85.0,39.0,30.00,South,184,13.0,18.0,20,0.00,,,0.00,0.000000,,2013-07-30 06:11:00,
2013-07-29 23:22:00,84.0,40.0,30.00,South,174,12.0,17.0,21,0.00,,,0.00,0.000000,,2013-07-30 06:22:00,
2013-07-29 23:32:00,83.0,39.0,30.00,SSW,200,11.0,19.0,21,0.00,,,0.00,0.000000,,2013-07-30 06:32:00,
2013-07-29 23:43:00,83.0,40.0,30.00,South,182,12.0,17.0,22,0.00,,,0.00,0.000000,,2013-07-30 06:43:00,
2013-07-29 23:52:00,82.0,39.0,30.01,SE,124,5.0,12.0,22,0.00,,,0.00,0.000000,,2013-07-30 06:52:00,